X  Blizu METAR Podaci o vazduhoplovstvu     EDDK Cologne Bonn Airport
Temperatura
17°C Temperatura
17°C Tačka Rose
100% Vlaga



Vetar
1 MPS
2 KM/S
0 M/S
1 Čvorovi



Tiho
S
Trenutna situacija

Delimično oblačno Delimično oblačno
Vazdušni pritisak 1011.85 (hPa) - 29.88 (inHg)
Vidljivost 6 (Milje) - 9.7 (km)
Aerodrom
Aerodromski kod. EDDK

Lokacija: Cologne Bonn Airport
Udaljenost: 56 (mi)

Metar:
EDDK 210350Z AUTO VRB01KT 9999 FEW002 SCT048 17/17 Q1012 NOSIG

Vreme: 2024-06-21 05:50 CEST